createdAt,value
2023-05-15T00:00:07.312Z,6.203
2023-05-15T00:01:07.329Z,6.198
2023-05-15T00:02:07.400Z,6.23
2023-05-15T00:03:07.471Z,6.228
2023-05-15T00:04:07.402Z,6.209
2023-05-15T00:05:07.523Z,6.197
2023-05-15T00:06:07.452Z,6.196
2023-05-15T00:07:07.457Z,6.178
2023-05-15T00:08:07.483Z,6.146
2023-05-15T00:09:07.492Z,6.162
2023-05-15T00:10:07.518Z,6.178
2023-05-15T00:11:07.524Z,6.162
2023-05-15T00:12:07.526Z,6.16
2023-05-15T00:13:07.554Z,6.158
2023-05-15T00:14:07.556Z,6.099
2023-05-15T00:15:07.599Z,6.091
2023-05-15T00:16:07.709Z,6.099
2023-05-15T00:17:07.658Z,6.086
2023-05-15T00:18:07.694Z,6.089
2023-05-15T00:19:07.762Z,6.09
2023-05-15T00:20:07.708Z,6.097
2023-05-15T00:21:07.729Z,6.096
2023-05-15T00:22:07.779Z,6.132
2023-05-15T00:23:07.777Z,6.12
2023-05-15T00:24:07.818Z,6.123
2023-05-15T00:25:07.820Z,6.114
2023-05-15T00:26:07.849Z,6.121
2023-05-15T00:27:07.880Z,6.118
2023-05-15T00:28:07.903Z,6.116
2023-05-15T00:29:07.912Z,6.088
2023-05-15T00:30:07.938Z,6.092
2023-05-15T00:31:07.952Z,6.086
2023-05-15T00:32:07.963Z,6.103
2023-05-15T00:33:07.984Z,6.108
2023-05-15T00:34:07.987Z,6.098
2023-05-15T00:35:08.008Z,6.112
2023-05-15T00:36:08.017Z,6.095
2023-05-15T00:37:08.016Z,6.098
2023-05-15T00:38:08.051Z,6.067
2023-05-15T00:39:08.098Z,6.061
2023-05-15T00:40:07.118Z,6.097
2023-05-15T00:41:07.142Z,6.109
2023-05-15T00:42:07.163Z,6.095
2023-05-15T00:43:07.184Z,6.094
2023-05-15T00:44:07.202Z,6.082
2023-05-15T00:45:07.251Z,6.034
2023-05-15T00:46:07.251Z,6.036
2023-05-15T00:47:07.400Z,6.035
2023-05-15T00:48:07.303Z,6.026
2023-05-15T00:49:07.329Z,6.024
2023-05-15T00:50:07.350Z,6.031
2023-05-15T00:51:07.369Z,6.015
2023-05-15T00:52:07.407Z,6.036
2023-05-15T00:53:07.421Z,6.034
2023-05-15T00:54:07.474Z,6.02
2023-05-15T00:55:07.466Z,6.01
2023-05-15T00:56:07.482Z,6.01
2023-05-15T00:57:07.487Z,6.028
2023-05-15T00:58:07.509Z,6.028
2023-05-15T00:59:07.519Z,6.026
2023-05-15T01:00:07.526Z,5.98
2023-05-15T01:01:08.696Z,5.965
2023-05-15T01:02:07.592Z,5.967
2023-05-15T01:03:07.705Z,5.963
2023-05-15T01:04:07.605Z,5.963
2023-05-15T01:05:07.658Z,5.958
2023-05-15T01:06:07.663Z,5.955
2023-05-15T01:07:07.670Z,5.951
2023-05-15T01:08:07.685Z,5.946
2023-05-15T01:09:07.718Z,5.949
2023-05-15T01:10:07.745Z,5.928
2023-05-15T01:11:07.768Z,5.913
2023-05-15T01:12:07.793Z,5.912
2023-05-15T01:13:07.816Z,5.905
2023-05-15T01:14:07.844Z,5.87
2023-05-15T01:15:07.869Z,5.861
2023-05-15T01:16:07.886Z,5.856
2023-05-15T01:17:07.921Z,5.842
2023-05-15T01:18:07.963Z,5.847
2023-05-15T01:19:08.021Z,5.846
2023-05-15T01:20:07.986Z,5.792
2023-05-15T01:21:07.994Z,5.785
2023-05-15T01:22:08.010Z,5.775
2023-05-15T01:23:08.053Z,5.716
2023-05-15T01:24:08.042Z,5.702
2023-05-15T01:25:08.070Z,5.678
2023-05-15T01:26:08.062Z,5.664
2023-05-15T01:27:08.080Z,5.631
2023-05-15T01:28:08.080Z,5.632
2023-05-15T01:29:07.133Z,5.614
2023-05-15T01:30:07.136Z,5.574
2023-05-15T01:31:07.171Z,5.587
2023-05-15T01:32:07.232Z,5.596
2023-05-15T01:33:07.264Z,5.626
2023-05-15T01:34:07.249Z,5.608
2023-05-15T01:35:07.275Z,5.611
2023-05-15T01:36:07.300Z,5.645
2023-05-15T01:37:07.328Z,5.641
2023-05-15T01:38:07.349Z,5.648
2023-05-15T01:39:07.383Z,5.637
2023-05-15T01:40:07.407Z,5.636
2023-05-15T01:41:07.423Z,5.63
2023-05-15T01:42:07.459Z,5.647
2023-05-15T01:43:07.481Z,5.668
2023-05-15T01:44:07.509Z,5.677
2023-05-15T01:45:07.522Z,5.652
2023-05-15T01:46:07.578Z,5.674
2023-05-15T01:47:07.559Z,5.704
2023-05-15T01:48:07.673Z,5.689
2023-05-15T01:49:07.593Z,5.679
2023-05-15T01:50:07.627Z,5.678
2023-05-15T01:51:07.632Z,5.69
2023-05-15T01:52:07.648Z,5.684
2023-05-15T01:53:07.643Z,5.681
2023-05-15T01:54:07.667Z,5.679
2023-05-15T01:55:07.667Z,5.681
2023-05-15T01:56:07.696Z,5.681
2023-05-15T01:57:07.727Z,5.697
2023-05-15T01:58:07.746Z,5.681
2023-05-15T01:59:07.779Z,5.684
2023-05-15T02:00:07.822Z,5.687
2023-05-15T02:01:07.831Z,5.674
2023-05-15T02:02:07.996Z,5.67
2023-05-15T02:03:08.074Z,5.665
2023-05-15T02:04:07.923Z,5.661
2023-05-15T02:05:07.945Z,5.672
2023-05-15T02:06:07.980Z,5.659
2023-05-15T02:07:07.989Z,5.645
2023-05-15T02:08:08.024Z,5.626
2023-05-15T02:09:08.033Z,5.626
2023-05-15T02:10:08.032Z,5.638
2023-05-15T02:11:08.030Z,5.603
2023-05-15T02:12:08.041Z,5.611
2023-05-15T02:13:08.058Z,5.617
2023-05-15T02:14:08.087Z,5.592
2023-05-15T02:15:07.091Z,5.595
2023-05-15T02:16:07.125Z,5.597
2023-05-15T02:17:07.117Z,5.595
2023-05-15T02:18:07.143Z,5.586
2023-05-15T02:19:07.198Z,5.583
2023-05-15T02:20:07.168Z,5.58
2023-05-15T02:21:07.197Z,5.586
2023-05-15T02:22:07.185Z,5.586
2023-05-15T02:23:07.193Z,5.602
2023-05-15T02:24:07.202Z,5.619
2023-05-15T02:25:07.217Z,5.644
2023-05-15T02:26:07.239Z,5.647
2023-05-15T02:27:07.253Z,5.651
2023-05-15T02:28:07.267Z,5.649
2023-05-15T02:29:07.295Z,5.626
2023-05-15T02:30:07.306Z,5.617
2023-05-15T02:31:07.314Z,5.617
2023-05-15T02:32:07.456Z,5.617
2023-05-15T02:33:07.373Z,5.617
2023-05-15T02:34:07.353Z,5.62
2023-05-15T02:35:07.369Z,5.617
2023-05-15T02:36:07.369Z,5.627
2023-05-15T02:37:07.370Z,5.627
2023-05-15T02:38:07.376Z,5.636
2023-05-15T02:39:07.385Z,5.639
2023-05-15T02:40:07.405Z,5.662
2023-05-15T02:41:07.397Z,5.665
2023-05-15T02:42:07.417Z,5.699
2023-05-15T02:43:07.422Z,5.701
2023-05-15T02:44:07.410Z,5.704
2023-05-15T02:45:07.432Z,5.697
2023-05-15T02:46:07.515Z,5.691
2023-05-15T02:47:07.476Z,5.7
2023-05-15T02:48:07.589Z,5.681
2023-05-15T02:49:07.526Z,5.676
2023-05-15T02:50:07.558Z,5.683
2023-05-15T02:51:07.581Z,5.683
2023-05-15T02:52:07.616Z,5.676
2023-05-15T02:53:07.656Z,5.678
2023-05-15T02:54:07.663Z,5.686
2023-05-15T02:55:07.670Z,5.715
2023-05-15T02:56:07.704Z,5.727
2023-05-15T02:57:07.728Z,5.731
2023-05-15T02:58:07.748Z,5.709
2023-05-15T02:59:07.770Z,5.723
2023-05-15T03:00:07.794Z,5.719
2023-05-15T03:01:07.877Z,5.723
2023-05-15T03:02:07.827Z,5.705
2023-05-15T03:03:07.857Z,5.694
2023-05-15T03:04:07.899Z,5.705
2023-05-15T03:05:07.904Z,5.711
2023-05-15T03:06:07.914Z,5.731
2023-05-15T03:07:07.942Z,5.735
2023-05-15T03:08:07.953Z,5.727
2023-05-15T03:09:07.956Z,5.726
2023-05-15T03:10:07.962Z,5.746
2023-05-15T03:11:07.987Z,5.759
2023-05-15T03:12:08.014Z,5.759
2023-05-15T03:13:08.063Z,5.762
2023-05-15T03:14:08.078Z,5.758
2023-05-15T03:15:07.097Z,5.795
2023-05-15T03:16:07.112Z,5.799
2023-05-15T03:17:07.203Z,5.772
2023-05-15T03:18:07.178Z,5.775
2023-05-15T03:19:07.279Z,5.773
2023-05-15T03:20:07.209Z,5.771
2023-05-15T03:21:07.248Z,5.771
2023-05-15T03:22:07.260Z,5.764
2023-05-15T03:23:07.301Z,5.773
2023-05-15T03:24:07.341Z,5.771
2023-05-15T03:25:07.346Z,5.764
2023-05-15T03:26:07.362Z,5.758
2023-05-15T03:27:07.390Z,5.76
2023-05-15T03:28:07.412Z,5.762
2023-05-15T03:29:07.420Z,5.736
2023-05-15T03:30:07.427Z,5.744
2023-05-15T03:31:07.470Z,5.786
2023-05-15T03:32:07.449Z,5.779
2023-05-15T03:33:07.507Z,5.818
2023-05-15T03:34:07.465Z,5.83
2023-05-15T03:35:07.479Z,5.839
2023-05-15T03:36:07.494Z,5.836
2023-05-15T03:37:07.522Z,5.834
2023-05-15T03:38:07.557Z,5.849
2023-05-15T03:39:07.568Z,5.847
2023-05-15T03:40:07.598Z,5.846
2023-05-15T03:41:07.615Z,5.857
2023-05-15T03:42:07.668Z,5.849
2023-05-15T03:43:07.661Z,5.851
2023-05-15T03:44:07.703Z,5.836
2023-05-15T03:45:07.713Z,5.866
2023-05-15T03:46:07.782Z,5.86
2023-05-15T03:47:07.769Z,5.893
2023-05-15T03:48:07.915Z,5.89
2023-05-15T03:49:07.804Z,5.903
2023-05-15T03:50:07.831Z,5.924
2023-05-15T03:51:07.889Z,5.923
2023-05-15T03:52:07.876Z,5.96
2023-05-15T03:53:07.893Z,5.96
2023-05-15T03:54:07.915Z,5.968
2023-05-15T03:55:07.949Z,5.982
2023-05-15T03:56:07.948Z,5.979
2023-05-15T03:57:07.953Z,5.965
2023-05-15T03:58:07.955Z,5.967
2023-05-15T03:59:07.995Z,5.966
2023-05-15T04:00:08.001Z,5.993
2023-05-15T04:01:08.055Z,5.986
2023-05-15T04:02:08.124Z,5.974
2023-05-15T04:03:08.248Z,5.981
2023-05-15T04:04:07.105Z,6.012
2023-05-15T04:05:07.230Z,6.028
2023-05-15T04:06:07.163Z,6.021
2023-05-15T04:07:07.184Z,6.039
2023-05-15T04:08:07.210Z,6.03
2023-05-15T04:09:07.237Z,6.028
2023-05-15T04:10:07.265Z,6.039
2023-05-15T04:11:07.281Z,6.029
2023-05-15T04:12:07.305Z,6.056
2023-05-15T04:13:07.332Z,6.009
2023-05-15T04:14:07.351Z,6.009
2023-05-15T04:15:07.365Z,6.007
2023-05-15T04:16:07.497Z,5.985
2023-05-15T04:17:07.426Z,5.998
2023-05-15T04:18:07.430Z,5.999
2023-05-15T04:19:07.494Z,5.999
2023-05-15T04:20:07.466Z,5.996
2023-05-15T04:21:07.493Z,6.002
2023-05-15T04:22:07.491Z,6.009
2023-05-15T04:23:07.505Z,6.013
2023-05-15T04:24:07.500Z,6.029
2023-05-15T04:25:07.538Z,6.045
2023-05-15T04:26:07.572Z,6.07
2023-05-15T04:27:07.693Z,6.062
2023-05-15T04:28:07.611Z,6.074
2023-05-15T04:29:07.648Z,6.114
2023-05-15T04:30:07.666Z,6.102
2023-05-15T04:31:07.680Z,6.124
2023-05-15T04:32:07.824Z,6.132
2023-05-15T04:33:07.868Z,6.164
2023-05-15T04:34:07.773Z,6.134
2023-05-15T04:35:07.798Z,6.141
2023-05-15T04:36:07.840Z,6.17
2023-05-15T04:37:07.847Z,6.163
2023-05-15T04:38:07.882Z,6.149
2023-05-15T04:39:07.896Z,6.165
2023-05-15T04:40:08.045Z,6.164
2023-05-15T04:41:07.953Z,6.174
2023-05-15T04:42:07.968Z,6.176
2023-05-15T04:43:07.983Z,6.197
2023-05-15T04:44:07.993Z,6.213
2023-05-15T04:45:08.094Z,6.249
2023-05-15T04:46:08.088Z,6.251
2023-05-15T04:47:08.051Z,6.306
2023-05-15T04:48:08.120Z,6.301
2023-05-15T04:49:08.087Z,6.338
2023-05-15T04:50:07.081Z,6.354
2023-05-15T04:51:07.089Z,6.368
2023-05-15T04:52:07.117Z,6.403
2023-05-15T04:53:07.139Z,6.423
2023-05-15T04:54:07.166Z,6.449
2023-05-15T04:55:07.189Z,6.445
2023-05-15T04:56:07.209Z,6.486
2023-05-15T04:57:07.254Z,6.507
2023-05-15T04:58:07.263Z,6.511
2023-05-15T04:59:07.277Z,6.518
2023-05-15T05:00:07.295Z,6.528
2023-05-15T05:01:07.362Z,6.54
2023-05-15T05:02:07.402Z,6.574
2023-05-15T05:03:07.450Z,6.554
2023-05-15T05:04:07.524Z,6.623
2023-05-15T05:05:07.426Z,6.625
2023-05-15T05:06:07.430Z,6.672
2023-05-15T05:07:07.454Z,6.68
2023-05-15T05:08:07.472Z,6.718
2023-05-15T05:09:07.501Z,6.754
2023-05-15T05:10:07.510Z,6.764
2023-05-15T05:11:07.537Z,6.771
2023-05-15T05:12:07.550Z,6.791
2023-05-15T05:13:07.558Z,6.791
2023-05-15T05:14:07.562Z,6.817
2023-05-15T05:15:07.576Z,6.835
2023-05-15T05:16:07.605Z,6.873
2023-05-15T05:17:07.668Z,6.883
2023-05-15T05:18:07.748Z,6.94
2023-05-15T05:19:07.728Z,6.95
2023-05-15T05:20:09.366Z,6.959
2023-05-15T05:21:07.692Z,6.991
2023-05-15T05:22:07.853Z,6.987
2023-05-15T05:23:07.753Z,6.982
2023-05-15T05:24:07.769Z,6.972
2023-05-15T05:25:07.800Z,6.955
2023-05-15T05:26:07.817Z,6.985
2023-05-15T05:27:07.840Z,7.01
2023-05-15T05:28:07.874Z,7.046
2023-05-15T05:29:07.893Z,7.052
2023-05-15T05:30:07.906Z,7.078
2023-05-15T05:31:07.924Z,7.106
2023-05-15T05:32:07.943Z,7.116
2023-05-15T05:33:08.024Z,7.126
2023-05-15T05:34:07.970Z,7.153
2023-05-15T05:35:08.005Z,7.118
2023-05-15T05:36:08.004Z,7.134
2023-05-15T05:37:08.009Z,7.142
2023-05-15T05:38:08.027Z,7.163
2023-05-15T05:39:08.055Z,7.177
2023-05-15T05:40:08.081Z,7.183
2023-05-15T05:41:07.109Z,7.174
2023-05-15T05:42:07.136Z,7.254
2023-05-15T05:43:07.155Z,7.238
2023-05-15T05:44:07.175Z,7.272
2023-05-15T05:45:07.200Z,7.303
2023-05-15T05:46:07.233Z,7.309
2023-05-15T05:47:07.352Z,7.35
2023-05-15T05:48:07.282Z,7.353
2023-05-15T05:49:07.253Z,7.393
2023-05-15T05:50:07.313Z,7.379
2023-05-15T05:51:07.315Z,7.392
2023-05-15T05:52:07.364Z,7.454
2023-05-15T05:53:07.370Z,7.467
2023-05-15T05:54:07.385Z,7.495
2023-05-15T05:55:07.395Z,7.539
2023-05-15T05:56:07.427Z,7.601
2023-05-15T05:57:07.449Z,7.673
2023-05-15T05:59:07.517Z,7.805
2023-05-15T06:00:07.524Z,7.834
2023-05-15T06:01:07.563Z,7.907
2023-05-15T06:02:07.619Z,7.991
2023-05-15T06:03:07.762Z,8.014
2023-05-15T06:04:07.804Z,8.038
2023-05-15T06:05:07.631Z,8.116
2023-05-15T06:06:07.645Z,8.168
2023-05-15T06:07:07.673Z,8.201
2023-05-15T06:08:07.700Z,8.244
2023-05-15T06:09:07.720Z,8.303
2023-05-15T06:10:07.739Z,8.342
2023-05-15T06:11:07.761Z,8.408
2023-05-15T06:12:07.756Z,8.49
2023-05-15T06:13:07.765Z,8.511
2023-05-15T06:14:07.764Z,8.563
2023-05-15T06:15:07.776Z,8.653
2023-05-15T06:16:07.797Z,8.616
2023-05-15T06:17:08.075Z,8.62
2023-05-15T06:18:07.910Z,8.629
2023-05-15T06:19:08.030Z,8.737
2023-05-15T06:20:07.924Z,8.82
2023-05-15T06:21:07.948Z,8.872
2023-05-15T06:22:07.967Z,8.923
2023-05-15T06:23:07.996Z,8.971
2023-05-15T06:24:08.023Z,9.005
2023-05-15T06:25:08.083Z,9.064
2023-05-15T06:26:08.089Z,9.098
2023-05-15T06:27:07.111Z,9.09
2023-05-15T06:28:07.145Z,9.136
2023-05-15T06:29:07.155Z,9.231
2023-05-15T06:30:07.192Z,9.234
2023-05-15T06:31:07.308Z,9.252
2023-05-15T06:32:07.225Z,9.321
2023-05-15T06:33:07.309Z,9.363
2023-05-15T06:34:07.273Z,9.392
2023-05-15T06:35:07.285Z,9.433
2023-05-15T06:36:07.304Z,9.464
2023-05-15T06:37:07.325Z,9.508
2023-05-15T06:38:07.341Z,9.57
2023-05-15T06:39:07.354Z,9.454
2023-05-15T06:40:07.384Z,9.458
2023-05-15T06:41:07.390Z,9.516
2023-05-15T06:42:07.404Z,9.546
2023-05-15T06:43:07.412Z,9.515
2023-05-15T06:44:07.419Z,9.572
2023-05-15T06:45:07.461Z,9.629
2023-05-15T06:46:07.570Z,9.607
2023-05-15T06:47:07.591Z,9.643
2023-05-15T06:48:07.589Z,9.671
2023-05-15T06:49:07.566Z,9.699
2023-05-15T06:50:07.600Z,9.692
2023-05-15T06:51:07.650Z,9.784
2023-05-15T06:52:07.638Z,9.738
2023-05-15T06:53:07.687Z,9.784
2023-05-15T06:54:07.700Z,9.794
2023-05-15T06:55:07.729Z,9.832
2023-05-15T06:56:07.741Z,9.925
2023-05-15T06:57:07.764Z,9.899
2023-05-15T06:58:07.786Z,9.916
2023-05-15T06:59:07.816Z,9.987
2023-05-15T07:00:07.824Z,9.993
2023-05-15T07:01:07.848Z,9.893
2023-05-15T07:02:07.986Z,9.897
2023-05-15T07:03:07.948Z,9.981
2023-05-15T07:04:07.928Z,10
2023-05-15T07:05:08.009Z,10.07
2023-05-15T07:06:07.949Z,10.15
2023-05-15T07:07:07.968Z,10.17
2023-05-15T07:08:07.979Z,10.23
2023-05-15T08:45:43.599Z,6.58
2023-05-15T08:46:43.662Z,7.044
2023-05-15T08:47:43.641Z,6.835
2023-05-15T08:48:43.672Z,6.948
2023-05-15T08:49:43.582Z,7.024
2023-05-15T08:50:43.624Z,6.858
2023-05-15T08:51:43.614Z,6.893
2023-05-15T08:52:43.619Z,5.938
2023-05-15T08:53:43.627Z,5.981
2023-05-15T08:54:44.632Z,6.067
2023-05-15T08:55:43.659Z,7.846
2023-05-15T08:56:43.662Z,7.925
2023-05-15T08:57:43.677Z,7.85
2023-05-15T08:58:43.679Z,7.829
2023-05-15T08:59:43.687Z,7.915
2023-05-15T09:00:43.694Z,7.926
2023-05-15T09:01:43.774Z,7.896
2023-05-15T09:02:43.796Z,7.937
2023-05-15T09:03:43.738Z,7.986
2023-05-15T09:04:43.719Z,7.794
2023-05-15T09:05:43.751Z,7.693
2023-05-15T09:06:43.769Z,7.684
2023-05-15T09:07:43.737Z,7.604
2023-05-15T09:08:43.745Z,7.644
2023-05-15T09:09:43.753Z,7.592
2023-05-15T09:10:43.759Z,7.692
2023-05-15T09:11:43.780Z,7.468
2023-05-15T09:12:43.798Z,7.587
2023-05-15T09:13:43.775Z,7.626
2023-05-15T09:14:43.788Z,7.566
2023-05-15T09:15:43.790Z,7.451
2023-05-15T09:16:43.864Z,7.45
2023-05-15T09:17:43.853Z,7.509
2023-05-15T09:18:43.876Z,7.665
2023-05-15T09:19:43.868Z,7.613
2023-05-15T09:20:43.890Z,6.99
2023-05-15T09:21:43.917Z,7.003
2023-05-15T09:22:43.918Z,6.985
2023-05-15T09:23:43.943Z,6.968
2023-05-15T09:24:43.958Z,7.016
2023-05-15T09:25:43.956Z,7.089
2023-05-15T09:26:43.962Z,7.048
2023-05-15T09:27:43.962Z,7.054
2023-05-15T09:28:43.967Z,7.039
2023-05-15T09:29:44.016Z,7.108
2023-05-15T09:30:44.042Z,8.876
2023-05-15T09:31:44.067Z,8.85
2023-05-15T09:32:44.065Z,8.879
2023-05-15T09:33:44.052Z,8.9
2023-05-15T09:34:44.058Z,8.947
2023-05-15T09:35:44.073Z,8.952
2023-05-15T09:36:44.088Z,9.013
2023-05-15T09:37:44.083Z,9.034
2023-05-15T09:38:44.126Z,9.068
2023-05-15T09:39:43.108Z,9.087
2023-05-15T09:40:43.129Z,9.159
2023-05-15T09:41:43.139Z,9.096
2023-05-15T09:42:43.131Z,9.014
2023-05-15T09:43:43.143Z,8.975
2023-05-15T09:44:43.164Z,9.002
2023-05-15T09:45:43.298Z,9.007
2023-05-15T09:46:43.267Z,9.016
2023-05-15T09:47:43.312Z,9.055
2023-05-15T09:48:43.301Z,9.031
2023-05-15T09:49:43.228Z,9.02
2023-05-15T09:50:43.253Z,9.042
2023-05-15T09:51:43.246Z,9.037
2023-05-15T09:52:43.266Z,9.096
2023-05-15T09:53:43.271Z,9.128
2023-05-15T09:54:43.278Z,9.106
2023-05-15T09:55:43.277Z,9.144
2023-05-15T09:56:43.289Z,9.099
2023-05-15T09:57:43.305Z,9.121
2023-05-15T09:58:43.299Z,9.162
2023-05-15T09:59:43.317Z,9.231
2023-05-15T10:00:47.948Z,9.249
2023-05-15T10:01:43.362Z,9.304
2023-05-15T10:02:43.514Z,9.199
2023-05-15T10:03:43.380Z,9.011
2023-05-15T10:04:43.375Z,9.052
2023-05-15T10:05:44.099Z,9.09
2023-05-15T10:06:43.626Z,9.115
2023-05-15T10:07:43.424Z,9.273
2023-05-15T10:08:43.426Z,9.242
2023-05-15T10:09:43.411Z,9.176
2023-05-15T10:10:43.419Z,9.173
2023-05-15T10:11:43.493Z,9.245
2023-05-15T10:12:43.498Z,9.245
2023-05-15T10:13:43.504Z,9.152
2023-05-15T10:14:43.539Z,9.137
2023-05-15T10:15:43.667Z,9.14
2023-05-15T10:16:43.793Z,8.992
2023-05-15T10:17:43.701Z,9.112
2023-05-15T10:18:43.680Z,9.066
2023-05-15T10:19:56.634Z,9.281
2023-05-15T10:20:43.692Z,9.355
2023-05-15T10:21:43.741Z,9.288
2023-05-15T10:22:43.746Z,9.318
2023-05-15T10:23:43.776Z,9.479
2023-05-15T10:24:43.799Z,9.461
2023-05-15T10:25:43.839Z,9.359
2023-05-15T10:26:43.853Z,9.39
2023-05-15T10:27:43.872Z,9.502
2023-05-15T10:28:45.028Z,9.398
2023-05-15T10:29:43.915Z,9.274
2023-05-15T10:30:43.926Z,9.264
2023-05-15T10:31:44.004Z,9.225
2023-05-15T10:32:43.983Z,9.155
2023-05-15T10:33:43.985Z,9.263
2023-05-15T10:34:43.992Z,9.271
2023-05-15T10:35:44.006Z,9.445
2023-05-15T10:36:44.064Z,9.373
2023-05-15T10:37:44.020Z,9.395
2023-05-15T10:38:44.021Z,9.361
2023-05-15T10:39:44.051Z,9.355
2023-05-15T10:40:44.064Z,9.375
2023-05-15T10:41:44.045Z,9.417
2023-05-15T10:42:44.046Z,9.511
2023-05-15T10:43:44.072Z,9.613
2023-05-15T10:44:44.070Z,9.571
2023-05-15T10:45:43.111Z,9.683
2023-05-15T10:46:43.214Z,9.673
2023-05-15T10:47:43.180Z,9.654
2023-05-15T10:48:43.178Z,9.663
2023-05-15T10:49:43.198Z,9.728
2023-05-15T10:50:43.236Z,9.855
2023-05-15T10:51:43.285Z,9.802
2023-05-15T10:52:43.292Z,9.65
2023-05-15T10:53:43.313Z,9.633
2023-05-15T10:54:43.340Z,9.6
2023-05-15T10:55:43.370Z,9.552
2023-05-15T10:56:43.401Z,9.498
2023-05-15T10:57:43.404Z,9.573
2023-05-15T10:58:43.456Z,9.496
2023-05-15T10:59:43.463Z,9.582
2023-05-15T11:00:43.558Z,9.493
2023-05-15T11:01:43.606Z,9.545
2023-05-15T11:02:43.553Z,9.544
2023-05-15T11:03:49.225Z,9.478
2023-05-15T11:04:43.677Z,9.375
2023-05-15T11:05:43.576Z,9.418
2023-05-15T11:06:43.602Z,9.405
2023-05-15T11:07:43.611Z,9.41
2023-05-15T11:08:43.698Z,9.264
2023-05-15T11:09:43.643Z,9.259
2023-05-15T11:10:43.648Z,9.329
2023-05-15T11:11:43.657Z,9.122
2023-05-15T11:12:43.672Z,9.168
2023-05-15T11:13:43.704Z,9.168
2023-05-15T11:14:43.730Z,9.145
2023-05-15T11:15:43.747Z,9.016
2023-05-15T11:16:43.816Z,9.15
2023-05-15T11:17:43.876Z,9.146
2023-05-15T11:18:43.854Z,9.042
2023-05-15T11:19:43.864Z,9.054
2023-05-15T11:20:43.883Z,9.034
2023-05-15T11:21:43.916Z,9.019
2023-05-15T11:22:43.949Z,8.97
2023-05-15T11:23:43.958Z,9.041
2023-05-15T11:24:43.991Z,9.12
2023-05-15T11:25:44.018Z,9.169
2023-05-15T11:26:44.059Z,9.241
2023-05-15T11:27:44.078Z,9.156
2023-05-15T11:28:44.094Z,9.065
2023-05-15T11:29:43.114Z,9.088
2023-05-15T11:30:43.173Z,9.048
2023-05-15T11:31:43.149Z,9.051
2023-05-15T11:32:43.218Z,9.06
2023-05-15T11:33:43.436Z,9.222
2023-05-15T11:34:43.203Z,9.449
2023-05-15T11:35:43.287Z,9.453
2023-05-15T11:36:43.236Z,9.307
2023-05-15T11:37:43.243Z,9.305
2023-05-15T11:38:43.298Z,9.315
2023-05-15T11:39:43.266Z,9.354
2023-05-15T11:40:43.299Z,9.213
2023-05-15T11:41:43.306Z,9.128
2023-05-15T11:42:43.322Z,9.15
2023-05-15T11:43:43.374Z,9.16
2023-05-15T11:44:43.382Z,9.139
2023-05-15T11:45:43.427Z,9.097
2023-05-15T11:46:43.526Z,9.135
2023-05-15T11:47:43.497Z,9.162
2023-05-15T11:48:43.504Z,9.254
2023-05-15T11:49:43.529Z,9.226
2023-05-15T11:50:43.546Z,9.246
2023-05-15T11:51:43.595Z,9.131
2023-05-15T11:52:43.622Z,9.079
2023-05-15T11:53:43.631Z,9.133
2023-05-15T11:54:43.656Z,9.06
2023-05-15T11:55:43.689Z,9.112
2023-05-15T11:56:43.715Z,9.101
2023-05-15T11:57:43.878Z,9.108
2023-05-15T11:58:43.765Z,9.026
2023-05-15T11:59:43.778Z,9.091
2023-05-15T12:00:43.801Z,8.884
2023-05-15T12:01:43.823Z,9.064
2023-05-15T12:02:43.910Z,8.955
2023-05-15T12:03:44.063Z,8.923
2023-05-15T12:04:43.929Z,8.896
2023-05-15T12:05:54.048Z,8.84
2023-05-15T12:06:43.927Z,8.877
2023-05-15T12:07:43.929Z,8.809
2023-05-15T12:08:43.959Z,8.868
2023-05-15T12:09:43.957Z,8.778
2023-05-15T12:10:43.953Z,8.935
2023-05-15T12:11:43.985Z,8.894
2023-05-15T12:12:44.008Z,8.922
2023-05-15T12:13:44.029Z,8.831
2023-05-15T12:14:44.050Z,8.951
2023-05-15T12:15:44.068Z,8.927
2023-05-15T12:16:44.114Z,9.025
2023-05-15T12:17:43.139Z,9.077
2023-05-15T12:18:43.175Z,8.981
2023-05-15T12:19:43.145Z,9.058
2023-05-15T12:20:43.207Z,8.886
2023-05-15T12:21:43.216Z,9.008
2023-05-15T12:22:43.203Z,9.176
2023-05-15T12:23:44.379Z,9.025
2023-05-15T12:24:43.256Z,9.109
2023-05-15T12:25:43.260Z,9.051
2023-05-15T12:26:43.502Z,9.068
2023-05-15T12:27:43.284Z,9.07
2023-05-15T12:28:43.317Z,9.122
2023-05-15T12:29:43.343Z,9.216
2023-05-15T12:30:43.355Z,9.233
2023-05-15T12:31:43.428Z,9.3
2023-05-15T12:32:43.408Z,9.216
2023-05-15T12:33:43.390Z,9.196
2023-05-15T12:34:43.389Z,9.214
2023-05-15T12:35:43.424Z,9.13
2023-05-15T12:36:43.433Z,9.122
2023-05-15T12:37:43.472Z,8.977
2023-05-15T12:38:43.491Z,9.012
2023-05-15T12:39:43.513Z,9.119
2023-05-15T12:40:43.547Z,9.059
2023-05-15T12:41:43.583Z,9.032
2023-05-15T12:42:43.621Z,9.104
2023-05-15T12:43:43.656Z,9.042
2023-05-15T12:44:43.652Z,8.93
2023-05-15T12:45:43.711Z,8.816
2023-05-15T12:46:43.739Z,8.845
2023-05-15T12:47:43.775Z,8.745
2023-05-15T12:48:43.765Z,8.835
2023-05-15T12:49:43.794Z,8.77
2023-05-15T12:50:43.799Z,8.506
2023-05-15T12:51:43.851Z,8.597
2023-05-15T12:52:43.923Z,8.774
2023-05-15T12:53:43.891Z,8.739
2023-05-15T12:54:43.901Z,8.781
2023-05-15T12:55:43.919Z,8.927
2023-05-15T12:56:43.930Z,8.771
2023-05-15T12:57:43.956Z,8.735
2023-05-15T12:58:43.966Z,8.597
2023-05-15T12:59:44.003Z,8.427
2023-05-15T13:00:43.990Z,8.455
2023-05-15T13:01:44.021Z,8.471
2023-05-15T13:02:44.081Z,8.464
2023-05-15T13:03:44.273Z,8.484
2023-05-15T13:04:44.034Z,8.6
2023-05-15T13:05:44.060Z,8.548
2023-05-15T13:06:47.023Z,8.56
2023-05-15T13:07:43.128Z,8.588
2023-05-15T13:08:43.906Z,8.516
2023-05-15T13:09:43.148Z,8.429
2023-05-15T13:10:43.177Z,8.348
2023-05-15T13:11:43.255Z,8.449
2023-05-15T13:12:43.251Z,8.492
2023-05-15T13:13:43.265Z,8.526
2023-05-15T13:14:43.284Z,8.547
2023-05-15T13:15:43.344Z,8.62
2023-05-15T13:16:43.336Z,8.631
2023-05-15T13:17:43.415Z,8.777
2023-05-15T13:18:43.419Z,8.893
2023-05-15T13:19:43.390Z,8.905
2023-05-15T13:20:43.415Z,8.773
2023-05-15T13:21:43.456Z,8.844
2023-05-15T13:22:43.471Z,8.878
2023-05-15T13:23:43.486Z,8.85
2023-05-15T13:24:43.505Z,8.784
2023-05-15T13:25:43.497Z,8.819
2023-05-15T13:26:43.526Z,8.757
2023-05-15T13:27:43.530Z,8.891
2023-05-15T13:28:43.556Z,8.971
2023-05-15T13:29:43.570Z,8.867
2023-05-15T13:30:43.602Z,8.842
2023-05-15T13:31:43.597Z,8.892
2023-05-15T13:32:43.621Z,8.869
2023-05-15T13:33:43.633Z,8.789
2023-05-15T13:34:43.661Z,8.86
2023-05-15T13:35:43.688Z,8.855
2023-05-15T13:36:43.710Z,8.792
2023-05-15T13:37:43.726Z,8.79
2023-05-15T13:38:43.765Z,8.6
2023-05-15T13:39:43.783Z,8.639
2023-05-15T13:40:43.802Z,8.693
2023-05-15T13:41:43.840Z,8.6
2023-05-15T13:42:43.857Z,8.48
2023-05-15T13:43:43.886Z,8.539
2023-05-15T13:44:43.946Z,8.532
2023-05-15T13:45:43.931Z,8.623
2023-05-15T13:46:43.991Z,8.62
2023-05-15T13:47:44.010Z,8.509
2023-05-15T13:48:43.980Z,8.559
2023-05-15T13:49:43.988Z,8.607
2023-05-15T13:50:44.012Z,8.71
2023-05-15T13:51:44.020Z,8.724
2023-05-15T13:52:44.050Z,8.752
2023-05-15T13:53:44.061Z,8.645
2023-05-15T13:54:44.070Z,8.557
2023-05-15T13:55:44.170Z,8.526
2023-05-15T13:56:43.112Z,8.578
2023-05-15T13:57:43.138Z,8.547
2023-05-15T13:58:43.210Z,8.47
2023-05-15T13:59:43.194Z,8.417
2023-05-15T14:00:43.241Z,8.403
2023-05-15T14:01:43.242Z,8.344
2023-05-15T14:02:43.433Z,8.367
2023-05-15T14:03:43.351Z,8.362
2023-05-15T14:04:43.324Z,8.32
2023-05-15T14:05:43.356Z,8.384
2023-05-15T14:06:43.369Z,8.407
2023-05-15T14:07:43.409Z,8.337
2023-05-15T14:08:43.415Z,8.356
2023-05-15T14:09:43.469Z,8.289
2023-05-15T14:10:43.473Z,8.227
2023-05-15T14:11:43.504Z,8.184
2023-05-15T14:12:43.538Z,8.19
2023-05-15T14:13:43.545Z,8.056
2023-05-15T14:14:43.570Z,8.144
2023-05-15T14:15:43.614Z,8.07
2023-05-15T14:16:43.741Z,8.05
2023-05-15T14:17:43.683Z,7.981
2023-05-15T14:18:43.715Z,7.98
2023-05-15T14:19:43.666Z,8.059
2023-05-15T14:20:43.684Z,8.034
2023-05-15T14:21:43.714Z,8.092
2023-05-15T14:22:43.696Z,8.079
2023-05-15T14:23:43.703Z,8.171
2023-05-15T14:24:43.732Z,8.201
2023-05-15T14:25:43.725Z,8.264
2023-05-15T14:26:43.753Z,8.32
2023-05-15T14:27:43.773Z,8.312
2023-05-15T14:28:43.828Z,8.286
2023-05-15T14:29:43.848Z,8.282
2023-05-15T14:30:43.878Z,8.261
2023-05-15T14:31:43.929Z,8.268
2023-05-15T14:32:43.931Z,8.233